Time;durP1;ratioP1;P1;durP2;ratioP2;P2;SDS_P1;SDS_P2;PMS_P1;PMS_P2;Temp;Humidity;BMP_temperature;BMP_pressure;BME280_temperature;BME280_humidity;BME280_pressure;Samples;Min_cycle;Max_cycle;Signal;HPM_P1;HPM_P2
2023/02/20 00:00:18;;;;;;;7.80;6.53;;;;;;;5.85;97.49;101222.53;5056645;28;20768;-79
2023/02/20 00:02:45;;;;;;;7.13;6.63;;;;;;;5.81;97.48;101212.09;5056107;28;20294;-80
2023/02/20 00:05:12;;;;;;;6.73;6.17;;;;;;;5.92;96.63;101202.72;5056364;28;20207;-81
2023/02/20 00:07:39;;;;;;;8.13;7.55;;;;;;;5.86;97.03;101208.72;5055336;28;20448;-80
2023/02/20 00:10:07;;;;;;;6.73;6.13;;;;;;;5.94;96.50;101224.34;5056548;28;20246;-80
2023/02/20 00:12:33;;;;;;;6.93;6.33;;;;;;;5.84;96.47;101240.63;5056078;28;20203;-81
2023/02/20 00:15:01;;;;;;;6.30;5.80;;;;;;;5.72;96.74;101241.34;5056792;28;20259;-80
2023/02/20 00:17:28;;;;;;;7.43;6.83;;;;;;;5.68;97.18;101227.47;5056786;28;20209;-79
2023/02/20 00:19:55;;;;;;;6.13;5.63;;;;;;;5.75;96.81;101239.66;5056024;28;20219;-81
2023/02/20 00:22:21;;;;;;;7.23;6.53;;;;;;;5.85;96.51;101232.88;5056562;28;20258;-81
2023/02/20 00:24:47;;;;;;;6.60;6.00;;;;;;;5.86;96.09;101236.34;5055586;28;20204;-80
2023/02/20 00:27:14;;;;;;;6.83;6.30;;;;;;;5.84;95.57;101246.69;5056132;28;20206;-81
2023/02/20 00:29:40;;;;;;;7.50;6.80;;;;;;;5.73;96.04;101243.97;5055771;28;20227;-80
2023/02/20 00:32:08;;;;;;;6.03;5.53;;;;;;;5.83;96.22;101244.06;5055729;28;20210;-80
2023/02/20 00:34:34;;;;;;;6.23;5.60;;;;;;;5.91;95.67;101234.69;5055715;28;20746;-81
2023/02/20 00:37:00;;;;;;;6.77;6.17;;;;;;;5.82;95.97;101234.56;5056117;28;20209;-81
2023/02/20 00:39:27;;;;;;;7.10;6.40;;;;;;;5.85;95.80;101219.94;5055772;28;20230;-80
2023/02/20 00:41:54;;;;;;;6.60;6.00;;;;;;;5.92;95.89;101219.16;5057102;28;20260;-80
2023/02/20 00:44:21;;;;;;;6.70;6.10;;;;;;;5.87;95.35;101244.16;5055239;28;20282;-80
2023/02/20 00:46:47;;;;;;;6.43;5.93;;;;;;;5.94;94.64;101239.91;5055572;28;20207;-78
2023/02/20 00:49:15;;;;;;;7.03;6.40;;;;;;;5.89;94.57;101250.22;5055629;28;20232;-81
2023/02/20 00:51:41;;;;;;;6.47;5.97;;;;;;;5.85;95.61;101235.47;5055862;28;20235;-79
2023/02/20 00:54:08;;;;;;;6.80;6.17;;;;;;;5.95;94.83;101234.78;5055314;28;20200;-81
2023/02/20 00:56:34;;;;;;;6.37;5.87;;;;;;;5.84;94.24;101243.22;5055418;28;20201;-80
2023/02/20 00:59:00;;;;;;;6.40;5.90;;;;;;;5.88;94.71;101232.06;5055857;28;20224;-81
2023/02/20 01:01:27;;;;;;;6.70;6.10;;;;;;;5.87;94.64;101245.88;5055672;28;20674;-80
2023/02/20 01:03:53;;;;;;;6.83;6.23;;;;;;;5.86;94.23;101249.31;5055124;28;20253;-81
2023/02/20 01:06:21;;;;;;;7.63;6.27;;;;;;;5.88;94.04;101253.63;5055207;28;20265;-81
2023/02/20 01:08:48;;;;;;;6.80;6.10;;;;;;;5.89;93.60;101260.56;5055664;28;20297;-81
2023/02/20 01:11:14;;;;;;;6.37;5.87;;;;;;;5.92;93.88;101272.69;5055402;28;20208;-80
2023/02/20 01:13:40;;;;;;;6.77;6.27;;;;;;;5.93;93.39;101270.13;5057620;28;20205;-81
2023/02/20 01:16:07;;;;;;;7.57;6.97;;;;;;;5.84;92.95;101280.34;5055645;28;20255;-82
2023/02/20 01:18:33;;;;;;;6.80;6.20;;;;;;;5.90;93.53;101270.06;5055354;28;20224;-81
2023/02/20 01:21:00;;;;;;;8.33;6.30;;;;;;;6.00;93.38;101276.28;5055238;28;20285;-81
2023/02/20 01:23:27;;;;;;;7.57;6.97;;;;;;;5.91;94.03;101273.56;5055019;28;20231;-81
2023/02/20 01:25:54;;;;;;;7.33;6.70;;;;;;;5.83;93.69;101262.19;5055486;28;20208;-82
2023/02/20 01:28:20;;;;;;;7.30;6.70;;;;;;;5.99;94.58;101251.25;5055230;28;20278;-81
2023/02/20 01:30:46;;;;;;;8.13;7.53;;;;;;;6.00;93.33;101263.34;5055692;28;20212;-81
2023/02/20 01:33:13;;;;;;;7.03;6.53;;;;;;;6.00;92.53;101278.88;5055101;28;20212;-82
2023/02/20 01:35:39;;;;;;;6.77;6.17;;;;;;;6.08;92.22;101286.75;5056006;28;20254;-82
2023/02/20 01:38:06;;;;;;;6.37;5.87;;;;;;;6.13;91.45;101292.88;5054613;28;20714;-81
2023/02/20 01:40:34;;;;;;;5.77;5.37;;;;;;;6.20;91.17;101278.28;5054942;28;20209;-81
2023/02/20 01:43:01;;;;;;;5.33;4.93;;;;;;;5.93;90.52;101293.44;5055411;28;20663;-80
2023/02/20 01:45:32;;;;;;;6.17;5.67;;;;;;;6.04;90.57;101280.66;5056258;28;20263;-81
2023/02/20 01:47:59;;;;;;;5.57;5.17;;;;;;;6.09;90.70;101286.78;5056976;28;20232;-81
2023/02/20 01:50:30;;;;;;;5.83;5.43;;;;;;;6.10;90.94;101287.66;5056920;28;20671;-80
2023/02/20 01:52:59;;;;;;;5.47;5.03;;;;;;;6.05;89.45;101297.97;5055679;28;20270;-81
2023/02/20 01:55:29;;;;;;;6.47;5.97;;;;;;;6.12;90.28;101301.50;5056850;28;20231;-79
2023/02/20 01:58:00;;;;;;;6.43;5.93;;;;;;;5.99;89.90;101322.94;5059566;28;20600;-81
2023/02/20 02:00:27;;;;;;;6.13;5.63;;;;;;;6.11;89.53;101300.63;5060539;28;20212;-80
2023/02/20 02:03:00;;;;;;;6.10;5.70;;;;;;;6.10;89.18;101304.06;5060194;28;20208;-80
2023/02/20 02:05:28;;;;;;;6.33;5.83;;;;;;;6.07;90.28;101293.69;5060290;28;20204;-80
2023/02/20 02:07:56;;;;;;;6.73;6.13;;;;;;;6.02;89.72;101289.28;5059525;28;20221;-80
2023/02/20 02:10:28;;;;;;;7.33;6.73;;;;;;;5.97;90.19;101273.69;5059750;28;20205;-79
2023/02/20 02:12:54;;;;;;;7.73;7.03;;;;;;;5.92;90.25;101264.91;5059590;28;20585;-80
2023/02/20 02:15:24;;;;;;;8.20;7.53;;;;;;;5.97;90.58;101240.84;5059869;28;20234;-80
2023/02/20 02:18:03;;;;;;;7.87;7.17;;;;;;;6.02;90.30;101247.81;5059509;28;20729;-79
2023/02/20 02:21:00;;;;;;;8.13;7.43;;;;;;;5.95;90.27;101239.97;5059757;28;20254;-80
2023/02/20 02:23:59;;;;;;;8.33;7.63;;;;;;;5.80;90.78;101228.50;5058884;28;20208;-79
2023/02/20 02:26:57;;;;;;;9.40;7.67;;;;;;;5.64;92.48;101176.47;5060198;28;20342;-80
2023/02/20 02:29:42;;;;;;;8.30;7.50;;;;;;;5.70;92.29;101171.38;5059773;28;20232;-80
2023/02/20 02:32:40;;;;;;;8.23;7.53;;;;;;;5.73;92.82;101150.69;5059532;28;20244;-80
2023/02/20 02:35:45;;;;;;;8.07;7.37;;;;;;;5.79;92.00;101162.88;5059407;28;20635;-78
2023/02/20 02:38:20;;;;;;;7.97;7.27;;;;;;;5.78;92.30;101166.28;5058843;28;20239;-78
2023/02/20 02:40:54;;;;;;;8.63;7.93;;;;;;;5.79;91.52;101168.03;5059843;28;20229;-80
2023/02/20 02:43:28;;;;;;;8.73;8.03;;;;;;;5.74;92.30;101167.09;5059012;28;20212;-80
2023/02/20 02:45:57;;;;;;;10.57;9.57;;;;;;;5.55;92.22;101148.75;5059418;28;20264;-80
2023/02/20 02:48:27;;;;;;;8.83;8.07;;;;;;;5.69;92.60;101133.38;5059110;28;20254;-81
2023/02/20 02:50:57;;;;;;;8.73;8.03;;;;;;;5.63;91.58;101124.66;5058933;28;20227;-80
2023/02/20 02:53:25;;;;;;;9.37;8.57;;;;;;;5.40;92.45;101112.28;5057851;28;20245;-80
2023/02/20 02:55:52;;;;;;;10.70;9.70;;;;;;;5.48;93.47;101099.44;5058769;28;20240;-80
2023/02/20 02:58:19;;;;;;;10.37;9.17;;;;;;;5.51;93.01;101089.13;5058421;28;20247;-79
2023/02/20 03:00:51;;;;;;;9.93;9.10;;;;;;;5.66;92.28;101075.50;5059328;28;20282;-80
2023/02/20 03:03:21;;;;;;;9.93;9.13;;;;;;;5.68;92.48;101086.75;5061629;28;20211;-82
2023/02/20 03:05:52;;;;;;;10.33;9.43;;;;;;;5.72;91.90;101094.56;5059783;28;20674;-79
2023/02/20 03:08:30;;;;;;;9.80;9.00;;;;;;;5.72;91.95;101094.56;5059148;28;20298;-80
2023/02/20 03:11:02;;;;;;;10.37;9.47;;;;;;;5.66;92.35;101086.72;5059165;28;20218;-79
2023/02/20 03:16:22;;;;;;;10.97;10.13;;;;;;;5.49;93.76;101046.81;5058843;28;20207;-80
2023/02/20 03:18:52;;;;;;;12.80;11.80;;;;;;;5.65;94.35;101032.31;5058948;28;20232;-79
2023/02/20 03:21:21;;;;;;;13.67;12.57;;;;;;;5.74;93.73;101046.22;5059012;28;20235;-81
2023/02/20 03:23:52;;;;;;;14.17;12.77;;;;;;;5.70;93.00;101048.78;5058461;28;20214;-81
2023/02/20 03:26:25;;;;;;;14.57;13.27;;;;;;;5.81;93.26;101044.59;5059237;28;20262;-81
2023/02/20 03:28:58;;;;;;;15.63;14.33;;;;;;;5.82;93.37;101053.22;5059352;28;20262;-80
2023/02/20 03:31:30;;;;;;;17.00;15.50;;;;;;;5.84;93.16;101059.28;5058817;28;20232;-82
2023/02/20 03:45:18;;;;;;;16.70;15.30;;;;;;;5.85;93.45;101046.34;5059256;28;20257;-80
2023/02/20 03:47:51;;;;;;;17.60;16.20;;;;;;;5.88;93.71;101048.97;5059097;28;20207;-81
2023/02/20 03:53:03;;;;;;;17.77;16.33;;;;;;;5.95;92.67;101029.22;5058257;28;20214;-80
2023/02/20 03:55:29;;;;;;;16.00;14.73;;;;;;;6.00;92.93;101031.84;5058604;28;20208;-81
2023/02/20 03:58:03;;;;;;;16.53;15.13;;;;;;;6.07;93.08;101036.22;5058419;28;20652;-81
2023/02/20 04:00:33;;;;;;;16.07;14.67;;;;;;;6.11;92.66;101038.00;5057418;28;20681;-80
2023/02/20 04:03:06;;;;;;;15.97;14.37;;;;;;;6.07;92.07;101055.22;5057775;28;20205;-79
2023/02/20 04:05:37;;;;;;;16.90;15.13;;;;;;;6.04;92.21;101057.78;5057240;28;20207;-82
2023/02/20 04:08:08;;;;;;;15.73;14.43;;;;;;;6.07;92.59;101064.75;5057331;28;20286;-80
2023/02/20 04:10:39;;;;;;;16.20;14.90;;;;;;;6.07;91.83;101065.59;5057614;28;20235;-80
2023/02/20 04:13:07;;;;;;;15.83;14.33;;;;;;;6.02;92.55;101067.25;5056516;28;20665;-81
2023/02/20 04:15:34;;;;;;;15.90;14.50;;;;;;;6.09;91.44;101050.06;5056775;28;20227;-80
2023/02/20 04:18:04;;;;;;;15.90;14.50;;;;;;;5.99;92.32;101046.53;5056952;28;20714;-81
2023/02/20 04:20:31;;;;;;;15.53;14.13;;;;;;;5.98;92.39;101049.94;5057017;28;20617;-79
2023/02/20 04:23:04;;;;;;;15.10;13.80;;;;;;;6.08;92.39;101040.53;5056779;28;20223;-81
2023/02/20 04:25:35;;;;;;;15.57;13.97;;;;;;;6.05;91.83;101050.91;5056667;28;20212;-80
2023/02/20 04:28:04;;;;;;;15.70;14.10;;;;;;;6.09;92.05;101034.53;5056940;28;20354;-80
2023/02/20 04:30:32;;;;;;;15.10;13.90;;;;;;;6.11;91.58;101031.09;5057223;28;20270;-80
2023/02/20 04:32:58;;;;;;;14.77;13.47;;;;;;;6.13;92.07;101033.69;5056779;28;20239;-80
2023/02/20 04:35:25;;;;;;;15.23;13.63;;;;;;;6.21;91.41;101031.16;5056315;28;20254;-81
2023/02/20 04:37:51;;;;;;;14.80;13.47;;;;;;;6.26;91.83;101006.13;5056561;28;20610;-81
2023/02/20 04:40:21;;;;;;;14.17;12.93;;;;;;;6.27;91.29;101007.88;5056412;28;20234;-81
2023/02/20 04:42:47;;;;;;;14.90;13.33;;;;;;;6.28;91.13;101012.19;5056463;28;20257;-80
2023/02/20 04:45:16;;;;;;;13.67;12.47;;;;;;;6.21;91.95;100987.09;5056629;28;20205;-81
2023/02/20 04:47:44;;;;;;;13.00;11.90;;;;;;;6.32;92.11;100960.41;5056895;28;20628;-81
2023/02/20 04:50:16;;;;;;;13.50;12.20;;;;;;;6.29;91.00;100964.69;5057165;28;20229;-80
2023/02/20 04:52:42;;;;;;;13.00;11.87;;;;;;;6.36;91.59;100946.59;5056477;28;20203;-80
2023/02/20 04:55:09;;;;;;;13.13;11.97;;;;;;;6.30;91.65;100958.63;5056502;28;20205;-80
2023/02/20 04:57:35;;;;;;;13.23;12.03;;;;;;;6.38;90.27;100962.13;5056853;28;20214;-80
2023/02/20 05:00:02;;;;;;;12.67;11.47;;;;;;;6.28;91.65;100948.28;5056442;28;20227;-81
2023/02/20 05:02:28;;;;;;;12.43;11.43;;;;;;;6.28;90.78;100956.06;5056194;28;20680;-80
2023/02/20 05:04:56;;;;;;;12.30;11.10;;;;;;;6.33;91.67;100959.53;5056437;28;20209;-81
2023/02/20 05:07:22;;;;;;;13.40;12.10;;;;;;;6.33;91.13;100964.72;5056127;28;20327;-80
2023/02/20 05:09:48;;;;;;;13.03;11.83;;;;;;;6.34;91.90;100960.38;5056401;28;20228;-81
2023/02/20 05:12:15;;;;;;;13.77;11.93;;;;;;;6.40;91.91;100967.34;5056480;28;20282;-81
2023/02/20 05:14:41;;;;;;;12.33;11.13;;;;;;;6.38;90.71;100953.50;5056012;28;20263;-80
2023/02/20 05:17:07;;;;;;;12.80;11.50;;;;;;;6.38;90.99;100969.06;5056489;28;20209;-80
2023/02/20 05:19:34;;;;;;;12.17;11.10;;;;;;;6.35;90.60;100980.28;5055951;28;20250;-80
2023/02/20 05:22:19;;;;;;;12.40;11.10;;;;;;;6.43;90.98;100977.75;5055411;28;20212;-80
2023/02/20 05:24:45;;;;;;;11.50;10.50;;;;;;;6.40;90.00;100975.97;5055610;28;20214;-80
2023/02/20 05:27:13;;;;;;;11.40;10.30;;;;;;;6.38;91.00;100979.44;5055642;28;20680;-79
2023/02/20 05:29:44;;;;;;;14.40;10.40;;;;;;;6.41;90.75;100975.13;5054860;28;20286;-80
2023/02/20 05:32:10;;;;;;;12.07;10.83;;;;;;;6.45;91.28;100983.81;5055536;28;20212;-81
2023/02/20 05:34:37;;;;;;;12.13;10.77;;;;;;;6.43;91.01;100995.91;5054696;28;20208;-80
2023/02/20 05:37:04;;;;;;;12.80;9.93;;;;;;;6.50;90.29;100998.56;5055366;28;20262;-80
2023/02/20 05:39:31;;;;;;;11.37;10.17;;;;;;;6.53;90.41;100993.38;5055189;28;20711;-81
2023/02/20 05:41:57;;;;;;;12.57;11.27;;;;;;;6.50;90.55;100982.09;5056053;28;20233;-80
2023/02/20 05:44:24;;;;;;;11.30;10.30;;;;;;;6.54;90.09;100974.38;5055680;28;20208;-80
2023/02/20 05:46:50;;;;;;;11.83;10.67;;;;;;;6.59;90.69;100957.97;5054661;28;20207;-80
2023/02/20 05:49:17;;;;;;;12.13;10.93;;;;;;;6.53;90.49;100972.63;5054665;28;20283;-79
2023/02/20 05:51:43;;;;;;;11.47;10.30;;;;;;;6.50;90.02;100967.44;5055203;28;20204;-80
2023/02/20 05:54:11;;;;;;;10.87;9.77;;;;;;;6.56;90.27;100966.56;5055472;28;20201;-81
2023/02/20 05:56:41;;;;;;;11.17;9.70;;;;;;;6.51;89.22;100965.69;5054930;28;20610;-80
2023/02/20 05:59:07;;;;;;;9.97;8.87;;;;;;;6.54;89.19;100969.19;5055710;28;20576;-81
2023/02/20 06:01:34;;;;;;;9.73;8.83;;;;;;;6.54;88.85;100979.56;5054936;28;20679;-80
2023/02/20 06:04:01;;;;;;;10.47;9.47;;;;;;;6.61;89.31;100970.06;5055243;28;20206;-81
2023/02/20 06:06:32;;;;;;;8.70;7.97;;;;;;;6.60;87.90;100996.88;5054829;28;20691;-81
2023/02/20 06:08:59;;;;;;;9.37;8.47;;;;;;;6.65;87.97;100997.78;5054428;28;20274;-80
2023/02/20 06:11:26;;;;;;;9.47;8.20;;;;;;;6.62;88.70;101005.56;5054224;28;20221;-80
2023/02/20 06:13:53;;;;;;;7.60;6.90;;;;;;;6.67;88.16;101003.84;5054643;28;20205;-81
2023/02/20 06:16:23;;;;;;;8.40;6.47;;;;;;;6.67;87.36;101018.53;5054842;28;20217;-80
2023/02/20 06:18:49;;;;;;;8.13;7.37;;;;;;;6.73;87.34;101016.84;5054646;28;20224;-80
2023/02/20 06:21:15;;;;;;;7.53;6.53;;;;;;;6.75;87.01;101017.72;5054568;28;20637;-80
2023/02/20 06:23:44;;;;;;;7.93;6.93;;;;;;;6.81;87.47;101013.44;5054155;28;20205;-81
2023/02/20 06:26:12;;;;;;;7.83;6.60;;;;;;;6.78;87.33;101014.28;5054599;28;20595;-81
2023/02/20 06:28:40;;;;;;;7.67;6.77;;;;;;;6.83;87.13;101016.91;5052458;28;20224;-79
2023/02/20 06:31:07;;;;;;;6.93;6.33;;;;;;;6.88;86.54;101025.59;5054258;28;20229;-80
2023/02/20 06:33:34;;;;;;;8.20;6.13;;;;;;;6.90;86.05;101037.72;5054177;28;20664;-80
2023/02/20 06:36:00;;;;;;;6.97;6.27;;;;;;;6.86;86.42;101045.47;5054713;28;20730;-81
2023/02/20 06:38:27;;;;;;;7.07;6.03;;;;;;;6.86;86.56;101043.75;5054597;28;20237;-81
2023/02/20 06:40:53;;;;;;;8.33;5.50;;;;;;;6.94;86.35;101039.47;5055239;28;20525;-80
2023/02/20 06:43:19;;;;;;;6.97;6.27;;;;;;;6.93;86.21;101034.25;5058178;28;20200;-81
2023/02/20 06:45:47;;;;;;;7.27;6.57;;;;;;;6.87;85.45;101052.38;5058412;28;20204;-80
2023/02/20 06:48:14;;;;;;;6.50;5.73;;;;;;;6.94;86.01;101048.97;5058836;28;20277;-81
2023/02/20 06:50:41;;;;;;;6.23;5.60;;;;;;;6.95;85.57;101056.75;5058758;28;20221;-80
2023/02/20 06:53:07;;;;;;;6.20;5.47;;;;;;;6.94;85.54;101060.22;5057900;28;20197;-80
2023/02/20 06:55:33;;;;;;;8.20;5.13;;;;;;;6.93;85.83;101057.63;5057928;28;20664;-80
2023/02/20 06:58:00;;;;;;;6.20;5.60;;;;;;;6.98;85.18;101050.72;5058329;28;20711;-80
2023/02/20 07:00:27;;;;;;;6.60;5.70;;;;;;;6.99;85.47;101057.66;5058740;28;20204;-80
2023/02/20 07:02:54;;;;;;;7.60;6.13;;;;;;;7.04;85.35;101055.09;5055288;28;20254;-79
2023/02/20 07:05:21;;;;;;;6.87;6.17;;;;;;;7.01;84.86;101060.25;5054130;28;20626;-80
2023/02/20 07:07:47;;;;;;;7.03;5.83;;;;;;;7.03;84.97;101068.91;5057253;28;20686;-80
2023/02/20 07:10:13;;;;;;;7.37;6.67;;;;;;;7.04;84.65;101068.06;5058468;28;20271;-81
2023/02/20 07:12:40;;;;;;;6.23;5.63;;;;;;;7.01;85.05;101066.31;5060037;28;20197;-80
2023/02/20 07:15:07;;;;;;;7.23;6.53;;;;;;;7.01;85.00;101073.22;5060193;28;20235;-81
2023/02/20 07:17:34;;;;;;;6.63;5.37;;;;;;;7.07;84.81;101073.25;5059463;28;20208;-80
2023/02/20 07:20:02;;;;;;;6.30;5.80;;;;;;;7.07;85.50;101084.50;5059575;28;20201;-80
2023/02/20 07:22:29;;;;;;;7.37;6.23;;;;;;;7.03;85.17;101090.53;5058455;28;20213;-79
2023/02/20 07:24:55;;;;;;;7.53;5.87;;;;;;;7.01;85.20;101083.63;5058133;28;20201;-80
2023/02/20 07:27:22;;;;;;;8.27;5.97;;;;;;;7.02;85.38;101073.25;5055584;28;20740;-80
2023/02/20 07:29:50;;;;;;;6.90;5.70;;;;;;;7.11;85.89;101054.25;5058236;28;20217;-79
2023/02/20 07:32:19;;;;;;;7.03;5.63;;;;;;;7.02;84.83;101060.28;5056706;28;20205;-79
2023/02/20 07:34:45;;;;;;;6.30;5.63;;;;;;;7.03;85.68;101049.00;5056531;28;20285;-80
2023/02/20 07:37:13;;;;;;;9.03;5.63;;;;;;;7.11;85.98;101039.53;5057719;28;20740;-79
2023/02/20 07:39:40;;;;;;;7.23;5.97;;;;;;;7.11;84.82;101033.47;5058114;28;20270;-79
2023/02/20 07:42:06;;;;;;;6.10;5.43;;;;;;;7.19;85.29;101034.38;5058103;28;20205;-80
2023/02/20 07:44:33;;;;;;;6.67;5.87;;;;;;;7.21;85.36;101037.00;5059583;28;20198;-80
2023/02/20 07:46:59;;;;;;;6.47;5.30;;;;;;;7.16;84.93;101024.00;5059393;28;20208;-80
2023/02/20 07:49:25;;;;;;;7.30;5.23;;;;;;;7.21;84.84;101039.59;5060321;28;20221;-81
2023/02/20 07:51:52;;;;;;;7.27;5.73;;;;;;;7.23;84.87;101036.13;5059009;28;20225;-80
2023/02/20 07:54:19;;;;;;;7.63;5.70;;;;;;;7.16;85.23;101035.25;5058028;28;20274;-80
2023/02/20 07:56:46;;;;;;;5.63;5.13;;;;;;;7.18;85.28;101021.41;5059757;28;20201;-80
2023/02/20 07:59:12;;;;;;;8.10;5.83;;;;;;;7.06;85.46;101030.88;5059257;28;20218;-79
2023/02/20 08:01:38;;;;;;;6.60;5.20;;;;;;;7.11;84.87;101039.53;5056147;28;20194;-80
2023/02/20 08:04:05;;;;;;;7.60;6.27;;;;;;;7.18;85.37;101037.00;5055704;28;20202;-80
2023/02/20 08:06:31;;;;;;;6.43;5.67;;;;;;;7.23;85.33;101028.34;5054942;28;20205;-79
2023/02/20 08:08:57;;;;;;;7.83;6.97;;;;;;;7.16;84.67;101030.06;5057669;28;20291;-81
2023/02/20 08:11:25;;;;;;;6.20;5.60;;;;;;;7.28;84.59;101025.78;5058034;28;20221;-79
2023/02/20 08:13:54;;;;;;;6.33;5.47;;;;;;;7.22;84.39;101025.75;5057483;28;20198;-80
2023/02/20 08:16:20;;;;;;;6.40;5.80;;;;;;;7.36;85.47;101016.28;5058728;28;20249;-81
2023/02/20 08:18:47;;;;;;;5.80;5.30;;;;;;;7.42;85.17;101002.47;5057703;28;20221;-80
2023/02/20 08:21:13;;;;;;;7.07;5.67;;;;;;;7.44;84.91;100979.97;5059082;28;20197;-80
2023/02/20 08:23:39;;;;;;;7.50;6.80;;;;;;;7.37;84.43;101043.97;5058351;28;20205;-80
2023/02/20 08:26:06;;;;;;;6.87;6.23;;;;;;;7.35;84.54;101037.91;5057035;28;20204;-80
2023/02/20 08:28:33;;;;;;;7.70;7.10;;;;;;;7.39;84.60;101033.59;5057769;28;20246;-81
2023/02/20 08:31:00;;;;;;;7.50;6.67;;;;;;;7.31;84.85;101034.47;5057843;28;20282;-81
2023/02/20 08:33:26;;;;;;;11.63;8.07;;;;;;;7.23;85.25;101015.34;5057197;28;20205;-79
2023/02/20 08:35:54;;;;;;;7.23;6.63;;;;;;;7.15;84.53;100998.88;5057279;28;20247;-80
2023/02/20 08:38:28;;;;;;;9.47;8.50;;;;;;;7.20;85.58;100980.75;5056825;28;20237;-79
2023/02/20 08:40:55;;;;;;;9.13;8.33;;;;;;;7.22;85.43;100971.25;5057265;28;20556;-81
2023/02/20 08:43:22;;;;;;;11.07;10.03;;;;;;;7.30;84.51;101006.75;5057266;28;20204;-80
2023/02/20 08:45:49;;;;;;;9.77;8.87;;;;;;;7.38;83.98;100998.13;5056881;28;20222;-81
2023/02/20 08:48:16;;;;;;;12.03;8.63;;;;;;;7.39;84.89;101000.69;5057318;28;20221;-80
2023/02/20 08:50:42;;;;;;;12.20;10.13;;;;;;;7.46;85.19;100983.44;5054443;28;20216;-79
2023/02/20 08:53:09;;;;;;;10.77;9.77;;;;;;;7.44;85.02;100977.34;5055455;28;20206;-80
2023/02/20 08:55:35;;;;;;;11.30;9.83;;;;;;;7.50;84.98;100966.97;5055249;28;20238;-79
2023/02/20 08:58:01;;;;;;;11.57;9.83;;;;;;;7.42;84.69;100972.16;5055739;28;20221;-79
2023/02/20 09:00:28;;;;;;;11.57;10.37;;;;;;;7.53;84.87;100977.34;5055373;28;20625;-80
2023/02/20 09:02:56;;;;;;;10.77;9.77;;;;;;;7.44;85.00;100979.97;5055675;28;20197;-79
2023/02/20 09:05:22;;;;;;;12.07;10.90;;;;;;;7.40;85.43;100973.03;5052518;28;20266;-79
2023/02/20 09:07:49;;;;;;;12.73;11.60;;;;;;;7.46;85.31;100963.50;5056650;28;20288;-80
2023/02/20 09:10:16;;;;;;;13.07;11.13;;;;;;;7.50;85.92;100960.03;5055818;28;20621;-80
2023/02/20 09:12:42;;;;;;;12.67;11.37;;;;;;;7.46;85.66;100947.91;5051987;28;20201;-80
2023/02/20 09:15:09;;;;;;;13.23;12.13;;;;;;;7.48;85.42;100946.19;5055075;28;20197;-81
2023/02/20 09:17:35;;;;;;;14.73;13.20;;;;;;;7.58;85.40;100936.69;5055315;28;20204;-80
2023/02/20 09:20:04;;;;;;;14.60;13.30;;;;;;;7.62;85.11;100946.22;5055129;28;20209;-81
2023/02/20 09:22:30;;;;;;;14.80;13.50;;;;;;;7.64;85.21;100936.69;5054404;28;20590;-78
2023/02/20 09:24:56;;;;;;;15.27;13.77;;;;;;;7.70;84.57;100954.88;5054501;28;20206;-81
2023/02/20 09:27:23;;;;;;;15.93;14.40;;;;;;;7.65;84.82;100951.44;5055890;28;20252;-80
2023/02/20 09:29:49;;;;;;;13.67;12.47;;;;;;;7.54;84.34;100945.34;5054888;28;20224;-80
2023/02/20 09:32:15;;;;;;;15.37;14.00;;;;;;;7.62;85.92;100937.56;5056315;28;20306;-81
2023/02/20 09:34:42;;;;;;;16.27;14.93;;;;;;;7.72;85.52;100916.75;5055687;28;20738;-80
2023/02/20 09:37:10;;;;;;;14.43;13.13;;;;;;;7.74;85.29;100928.03;5055626;28;20271;-80
2023/02/20 09:39:36;;;;;;;15.17;13.80;;;;;;;7.63;86.06;100913.28;5055224;28;20239;-80
2023/02/20 09:42:15;;;;;;;16.73;15.13;;;;;;;7.76;86.15;100883.84;5056009;28;20206;-80
2023/02/20 09:44:53;;;;;;;18.47;16.63;;;;;;;7.76;86.70;100889.06;5055493;28;20293;-81
2023/02/20 09:47:32;;;;;;;17.70;16.00;;;;;;;7.80;86.00;100908.97;5054937;28;20250;-79
2023/02/20 09:50:01;;;;;;;16.40;14.87;;;;;;;7.68;86.64;100912.44;5053806;28;20201;-81
2023/02/20 09:52:30;;;;;;;17.13;15.63;;;;;;;7.69;86.76;100906.38;5055082;28;20302;-79
2023/02/20 09:55:02;;;;;;;17.60;15.70;;;;;;;7.72;86.50;100885.59;5054661;28;20205;-81
2023/02/20 09:57:31;;;;;;;19.17;17.27;;;;;;;7.72;87.27;100887.31;5055157;28;20205;-80
2023/02/20 10:00:03;;;;;;;18.03;16.53;;;;;;;7.73;88.05;100863.06;5055510;28;20211;-82
2023/02/20 10:02:33;;;;;;;18.20;16.33;;;;;;;7.75;87.76;100848.38;5052822;28;20212;-80
2023/02/20 10:05:03;;;;;;;19.63;17.73;;;;;;;7.72;88.39;100845.75;5055679;28;20262;-80
2023/02/20 10:07:32;;;;;;;18.80;17.10;;;;;;;7.64;88.45;100827.56;5055144;28;20626;-80
2023/02/20 10:10:00;;;;;;;18.77;17.17;;;;;;;7.55;88.89;100799.88;5055239;28;20252;-80
2023/02/20 10:12:32;;;;;;;20.57;18.67;;;;;;;7.59;88.98;100805.94;5055642;28;20274;-81
2023/02/20 10:15:19;;;;;;;20.57;18.77;;;;;;;7.59;89.83;100812.84;5055449;28;20209;-80
2023/02/20 10:17:54;;;;;;;18.07;16.37;;;;;;;7.53;89.07;100806.81;5057471;28;20212;-79
2023/02/20 10:20:30;;;;;;;20.83;18.73;;;;;;;7.55;89.53;100776.50;5058631;28;20201;-79
2023/02/20 10:23:07;;;;;;;19.73;17.77;;;;;;;7.54;89.68;100787.72;5058699;28;20243;-80
2023/02/20 10:25:38;;;;;;;19.37;17.50;;;;;;;7.65;90.44;100764.34;5058679;28;20267;-80
2023/02/20 10:28:08;;;;;;;20.23;18.10;;;;;;;7.62;90.42;100772.16;5058363;28;20221;-79
2023/02/20 10:30:40;;;;;;;21.10;17.77;;;;;;;7.73;89.86;100765.22;5057267;28;20235;-80
2023/02/20 10:33:19;;;;;;;20.33;18.27;;;;;;;7.68;90.84;100764.34;5057800;28;20204;-79
2023/02/20 10:35:50;;;;;;;21.00;19.00;;;;;;;7.78;90.68;100746.13;5054932;28;20217;-79
2023/02/20 10:38:25;;;;;;;20.80;18.80;;;;;;;7.74;90.86;100734.88;5057022;28;20229;-80
2023/02/20 10:40:59;;;;;;;21.03;18.93;;;;;;;7.71;91.03;100732.28;5057627;28;20205;-80
2023/02/20 10:43:35;;;;;;;21.00;18.97;;;;;;;7.74;90.37;100733.13;5057596;28;20255;-80
2023/02/20 10:46:08;;;;;;;18.60;17.00;;;;;;;7.61;90.99;100736.66;5057439;28;20208;-80
2023/02/20 10:48:35;;;;;;;20.40;18.50;;;;;;;7.70;91.06;100727.97;5056855;28;20723;-80
2023/02/20 10:51:07;;;;;;;20.77;18.77;;;;;;;7.65;92.07;100724.50;5056244;28;20221;-79
2023/02/20 10:53:43;;;;;;;20.07;18.10;;;;;;;7.75;92.29;100721.88;5056788;28;20213;-79
2023/02/20 10:56:12;;;;;;;23.70;19.97;;;;;;;7.74;91.91;100737.47;5057310;28;20208;-80
2023/02/20 10:58:43;;;;;;;20.00;18.17;;;;;;;7.75;92.11;100741.81;5057368;28;20232;-80
2023/02/20 11:01:13;;;;;;;19.63;17.73;;;;;;;7.72;91.99;100721.03;5056596;28;20205;-79
2023/02/20 11:03:46;;;;;;;20.97;18.77;;;;;;;7.70;92.06;100728.81;5057344;28;20260;-80
2023/02/20 11:06:16;;;;;;;20.93;18.70;;;;;;;7.72;91.88;100734.88;5057020;28;20205;-80
2023/02/20 11:08:45;;;;;;;19.97;18.27;;;;;;;7.75;92.49;100741.81;5056543;28;20229;-79
2023/02/20 11:11:26;;;;;;;21.40;18.57;;;;;;;7.77;92.36;100727.09;5057064;28;20228;-80
2023/02/20 11:13:52;;;;;;;21.23;18.97;;;;;;;7.55;93.30;100716.75;5056250;28;20205;-80
2023/02/20 11:16:24;;;;;;;23.53;20.10;;;;;;;7.73;92.71;100709.75;5056595;28;20214;-80
2023/02/20 11:19:03;;;;;;;19.10;17.40;;;;;;;7.65;92.89;100702.00;5057020;28;20229;-80
2023/02/20 11:21:40;;;;;;;18.17;16.43;;;;;;;7.58;93.30;100712.41;5057352;28;20217;-80
2023/02/20 11:24:29;;;;;;;20.93;18.93;;;;;;;7.64;93.41;100691.59;5054669;28;20205;-80
2023/02/20 11:26:59;;;;;;;24.50;16.77;;;;;;;7.53;94.28;100707.19;5056652;28;20210;-79
2023/02/20 11:29:33;;;;;;;21.27;18.47;;;;;;;7.41;94.75;100700.31;5057669;28;20225;-78
2023/02/20 11:32:25;;;;;;;20.43;18.27;;;;;;;7.37;95.05;100675.22;5057704;28;20240;-81
2023/02/20 11:35:14;;;;;;;22.33;19.27;;;;;;;7.31;94.84;100691.69;5056858;28;20209;-78
2023/02/20 11:37:41;;;;;;;22.37;19.93;;;;;;;7.16;95.46;100684.78;5057691;28;20255;-79
2023/02/20 11:40:15;;;;;;;22.43;19.67;;;;;;;7.17;95.35;100690.81;5057441;28;20263;-79
2023/02/20 11:42:43;;;;;;;22.47;20.17;;;;;;;7.14;96.05;100659.69;5057740;28;20200;-80
2023/02/20 11:45:15;;;;;;;25.77;20.50;;;;;;;7.16;96.03;100668.34;5057079;28;20602;-80
2023/02/20 11:47:42;;;;;;;29.80;21.47;;;;;;;7.19;96.50;100644.94;5056738;28;20201;-80
2023/02/20 11:50:15;;;;;;;23.40;20.40;;;;;;;7.14;96.27;100659.69;5057560;28;20718;-81
2023/02/20 11:52:55;;;;;;;24.50;21.83;;;;;;;7.16;96.82;100634.59;5056319;28;20296;-78